sensor_id;sensor_type;location;lat;lon;timestamp;temperature;humidity
8711;DHT22;4392;47.400;8.062;2023-12-14T00:00:43;10.30;99.90
8711;DHT22;4392;47.400;8.062;2023-12-14T00:03:09;10.30;99.90
8711;DHT22;4392;47.400;8.062;2023-12-14T00:05:34;10.20;99.90
8711;DHT22;4392;47.400;8.062;2023-12-14T00:08:00;10.20;99.90
8711;DHT22;4392;47.400;8.062;2023-12-14T00:10:26;10.10;99.90
8711;DHT22;4392;47.400;8.062;2023-12-14T00:12:52;10.10;99.90
8711;DHT22;4392;47.400;8.062;2023-12-14T00:15:19;11.10;99.90
8711;DHT22;4392;47.400;8.062;2023-12-14T00:17:45;10.70;99.90
8711;DHT22;4392;47.400;8.062;2023-12-14T00:20:11;10.30;99.90
8711;DHT22;4392;47.400;8.062;2023-12-14T00:22:36;10.20;99.90
8711;DHT22;4392;47.400;8.062;2023-12-14T00:25:04;10.10;99.90
8711;DHT22;4392;47.400;8.062;2023-12-14T00:27:29;10.00;99.90
8711;DHT22;4392;47.400;8.062;2023-12-14T00:29:55;9.60;99.90
8711;DHT22;4392;47.400;8.062;2023-12-14T00:32:21;9.70;99.90
8711;DHT22;4392;47.400;8.062;2023-12-14T00:34:46;9.70;99.90
8711;DHT22;4392;47.400;8.062;2023-12-14T00:37:12;10.40;99.90
8711;DHT22;4392;47.400;8.062;2023-12-14T00:39:37;10.90;99.90
8711;DHT22;4392;47.400;8.062;2023-12-14T00:42:03;10.40;99.90
8711;DHT22;4392;47.400;8.062;2023-12-14T00:44:29;9.90;99.90
8711;DHT22;4392;47.400;8.062;2023-12-14T00:46:55;9.90;99.90
8711;DHT22;4392;47.400;8.062;2023-12-14T00:49:20;9.80;99.90
8711;DHT22;4392;47.400;8.062;2023-12-14T00:51:48;9.80;99.90
8711;DHT22;4392;47.400;8.062;2023-12-14T00:54:14;9.70;99.90
8711;DHT22;4392;47.400;8.062;2023-12-14T00:56:39;9.80;99.90
8711;DHT22;4392;47.400;8.062;2023-12-14T00:59:05;9.80;99.90
8711;DHT22;4392;47.400;8.062;2023-12-14T01:01:33;9.80;99.90
8711;DHT22;4392;47.400;8.062;2023-12-14T01:03:58;9.70;99.90
8711;DHT22;4392;47.400;8.062;2023-12-14T01:06:25;9.60;99.90
8711;DHT22;4392;47.400;8.062;2023-12-14T01:08:50;9.60;99.90
8711;DHT22;4392;47.400;8.062;2023-12-14T01:11:16;9.70;99.90
8711;DHT22;4392;47.400;8.062;2023-12-14T01:13:41;9.60;99.90
8711;DHT22;4392;47.400;8.062;2023-12-14T01:16:07;9.60;99.90
8711;DHT22;4392;47.400;8.062;2023-12-14T01:18:33;9.60;99.90
8711;DHT22;4392;47.400;8.062;2023-12-14T01:20:59;11.40;99.90
8711;DHT22;4392;47.400;8.062;2023-12-14T01:23:24;11.00;99.90
8711;DHT22;4392;47.400;8.062;2023-12-14T01:25:50;10.30;99.90
8711;DHT22;4392;47.400;8.062;2023-12-14T01:28:15;10.10;99.90
8711;DHT22;4392;47.400;8.062;2023-12-14T01:30:41;10.00;99.90
8711;DHT22;4392;47.400;8.062;2023-12-14T01:33:07;9.90;99.90
8711;DHT22;4392;47.400;8.062;2023-12-14T01:35:32;9.80;99.90
8711;DHT22;4392;47.400;8.062;2023-12-14T01:37:58;9.80;99.90
8711;DHT22;4392;47.400;8.062;2023-12-14T01:40:23;9.70;99.90
8711;DHT22;4392;47.400;8.062;2023-12-14T01:42:51;9.70;99.90
8711;DHT22;4392;47.400;8.062;2023-12-14T01:45:17;9.70;99.90
8711;DHT22;4392;47.400;8.062;2023-12-14T01:47:43;9.70;99.90
8711;DHT22;4392;47.400;8.062;2023-12-14T01:50:09;9.70;99.90
8711;DHT22;4392;47.400;8.062;2023-12-14T01:52:35;9.70;99.90
8711;DHT22;4392;47.400;8.062;2023-12-14T01:55:00;9.60;99.90
8711;DHT22;4392;47.400;8.062;2023-12-14T01:57:28;9.60;99.90
8711;DHT22;4392;47.400;8.062;2023-12-14T01:59:53;9.60;99.90
8711;DHT22;4392;47.400;8.062;2023-12-14T02:02:19;9.60;99.90
8711;DHT22;4392;47.400;8.062;2023-12-14T02:04:45;9.50;99.90
8711;DHT22;4392;47.400;8.062;2023-12-14T02:07:11;10.80;99.90
8711;DHT22;4392;47.400;8.062;2023-12-14T02:09:36;10.90;99.90
8711;DHT22;4392;47.400;8.062;2023-12-14T02:12:02;12.10;99.90
8711;DHT22;4392;47.400;8.062;2023-12-14T02:14:28;11.40;99.90
8711;DHT22;4392;47.400;8.062;2023-12-14T02:16:53;12.30;99.90
8711;DHT22;4392;47.400;8.062;2023-12-14T02:19:21;12.00;99.90
8711;DHT22;4392;47.400;8.062;2023-12-14T02:21:47;10.90;99.90
8711;DHT22;4392;47.400;8.062;2023-12-14T02:24:15;10.30;99.90
8711;DHT22;4392;47.400;8.062;2023-12-14T02:26:40;10.00;99.90
8711;DHT22;4392;47.400;8.062;2023-12-14T02:29:06;10.00;99.90
8711;DHT22;4392;47.400;8.062;2023-12-14T02:31:31;10.10;99.90
8711;DHT22;4392;47.400;8.062;2023-12-14T02:33:57;10.10;99.90
8711;DHT22;4392;47.400;8.062;2023-12-14T02:36:23;10.00;99.90
8711;DHT22;4392;47.400;8.062;2023-12-14T02:38:48;10.10;99.90
8711;DHT22;4392;47.400;8.062;2023-12-14T02:41:14;10.00;99.90
8711;DHT22;4392;47.400;8.062;2023-12-14T02:43:39;11.30;99.90
8711;DHT22;4392;47.400;8.062;2023-12-14T02:46:06;12.40;99.90
8711;DHT22;4392;47.400;8.062;2023-12-14T02:48:32;12.10;99.90
8711;DHT22;4392;47.400;8.062;2023-12-14T02:50:57;11.60;99.90
8711;DHT22;4392;47.400;8.062;2023-12-14T02:53:25;11.10;99.90
8711;DHT22;4392;47.400;8.062;2023-12-14T02:55:50;10.90;99.90
8711;DHT22;4392;47.400;8.062;2023-12-14T02:58:16;10.80;99.90
8711;DHT22;4392;47.400;8.062;2023-12-14T03:00:42;11.90;99.90
8711;DHT22;4392;47.400;8.062;2023-12-14T03:03:07;12.70;99.90
8711;DHT22;4392;47.400;8.062;2023-12-14T03:05:33;12.30;99.90
8711;DHT22;4392;47.400;8.062;2023-12-14T03:07:58;11.60;99.90
8711;DHT22;4392;47.400;8.062;2023-12-14T03:10:24;10.90;99.90
8711;DHT22;4392;47.400;8.062;2023-12-14T03:12:50;10.60;99.90
8711;DHT22;4392;47.400;8.062;2023-12-14T03:15:18;10.50;99.90
8711;DHT22;4392;47.400;8.062;2023-12-14T03:17:44;10.20;99.90
8711;DHT22;4392;47.400;8.062;2023-12-14T03:20:10;10.50;99.90
8711;DHT22;4392;47.400;8.062;2023-12-14T03:22:36;11.60;99.90
8711;DHT22;4392;47.400;8.062;2023-12-14T03:25:04;11.20;99.90
8711;DHT22;4392;47.400;8.062;2023-12-14T03:27:30;11.90;99.90
8711;DHT22;4392;47.400;8.062;2023-12-14T03:29:55;12.00;99.90
8711;DHT22;4392;47.400;8.062;2023-12-14T03:32:21;11.30;99.90
8711;DHT22;4392;47.400;8.062;2023-12-14T03:34:49;10.90;99.90
8711;DHT22;4392;47.400;8.062;2023-12-14T03:37:14;10.70;99.90
8711;DHT22;4392;47.400;8.062;2023-12-14T03:39:40;10.40;99.90
8711;DHT22;4392;47.400;8.062;2023-12-14T03:42:06;10.20;99.90
8711;DHT22;4392;47.400;8.062;2023-12-14T03:44:31;10.20;99.90
8711;DHT22;4392;47.400;8.062;2023-12-14T03:46:59;10.30;99.90
8711;DHT22;4392;47.400;8.062;2023-12-14T03:49:25;10.20;99.90
8711;DHT22;4392;47.400;8.062;2023-12-14T03:51:51;10.20;99.90
8711;DHT22;4392;47.400;8.062;2023-12-14T03:54:16;10.20;99.90
8711;DHT22;4392;47.400;8.062;2023-12-14T03:56:42;10.20;99.90
8711;DHT22;4392;47.400;8.062;2023-12-14T03:59:08;10.30;99.90
8711;DHT22;4392;47.400;8.062;2023-12-14T04:01:33;10.30;99.90
8711;DHT22;4392;47.400;8.062;2023-12-14T04:03:59;10.40;99.90
8711;DHT22;4392;47.400;8.062;2023-12-14T04:06:24;11.00;99.90
8711;DHT22;4392;47.400;8.062;2023-12-14T04:08:50;10.60;99.90
8711;DHT22;4392;47.400;8.062;2023-12-14T04:11:16;10.40;99.90
8711;DHT22;4392;47.400;8.062;2023-12-14T04:13:41;10.20;99.90
8711;DHT22;4392;47.400;8.062;2023-12-14T04:16:07;10.20;99.90
8711;DHT22;4392;47.400;8.062;2023-12-14T04:18:33;10.10;99.90
8711;DHT22;4392;47.400;8.062;2023-12-14T04:20:59;10.10;99.90
8711;DHT22;4392;47.400;8.062;2023-12-14T04:23:24;10.00;99.90
8711;DHT22;4392;47.400;8.062;2023-12-14T04:25:51;10.00;99.90
8711;DHT22;4392;47.400;8.062;2023-12-14T04:28:17;9.90;99.90
8711;DHT22;4392;47.400;8.062;2023-12-14T04:30:42;9.90;99.90
8711;DHT22;4392;47.400;8.062;2023-12-14T04:33:10;9.90;99.90
8711;DHT22;4392;47.400;8.062;2023-12-14T04:35:36;9.90;99.90
8711;DHT22;4392;47.400;8.062;2023-12-14T04:38:02;9.90;99.90
8711;DHT22;4392;47.400;8.062;2023-12-14T04:40:28;9.80;99.90
8711;DHT22;4392;47.400;8.062;2023-12-14T04:42:53;9.80;99.90
8711;DHT22;4392;47.400;8.062;2023-12-14T04:45:19;9.80;99.90
8711;DHT22;4392;47.400;8.062;2023-12-14T04:47:44;9.80;99.90
8711;DHT22;4392;47.400;8.062;2023-12-14T04:50:10;9.70;99.90
8711;DHT22;4392;47.400;8.062;2023-12-14T04:52:36;9.70;99.90
8711;DHT22;4392;47.400;8.062;2023-12-14T04:55:01;9.80;99.90
8711;DHT22;4392;47.400;8.062;2023-12-14T04:57:27;9.80;99.90
8711;DHT22;4392;47.400;8.062;2023-12-14T04:59:52;9.80;99.90
8711;DHT22;4392;47.400;8.062;2023-12-14T05:02:18;9.80;99.90
8711;DHT22;4392;47.400;8.062;2023-12-14T05:04:44;9.80;99.90
8711;DHT22;4392;47.400;8.062;2023-12-14T05:07:09;9.80;99.90
8711;DHT22;4392;47.400;8.062;2023-12-14T05:09:35;9.70;99.90
8711;DHT22;4392;47.400;8.062;2023-12-14T05:12:00;9.70;99.90
8711;DHT22;4392;47.400;8.062;2023-12-14T05:14:26;9.60;99.90
8711;DHT22;4392;47.400;8.062;2023-12-14T05:16:54;9.60;99.90
8711;DHT22;4392;47.400;8.062;2023-12-14T05:19:19;9.30;99.90
8711;DHT22;4392;47.400;8.062;2023-12-14T05:21:45;9.40;99.90
8711;DHT22;4392;47.400;8.062;2023-12-14T05:24:11;9.40;99.90
8711;DHT22;4392;47.400;8.062;2023-12-14T05:26:37;9.40;99.90
8711;DHT22;4392;47.400;8.062;2023-12-14T05:29:03;9.40;99.90
8711;DHT22;4392;47.400;8.062;2023-12-14T05:31:28;9.10;99.90
8711;DHT22;4392;47.400;8.062;2023-12-14T05:33:54;9.20;99.90
8711;DHT22;4392;47.400;8.062;2023-12-14T05:36:20;9.10;99.90
8711;DHT22;4392;47.400;8.062;2023-12-14T05:38:45;9.20;99.90
8711;DHT22;4392;47.400;8.062;2023-12-14T05:41:11;9.20;99.90
8711;DHT22;4392;47.400;8.062;2023-12-14T05:43:36;9.20;99.90
8711;DHT22;4392;47.400;8.062;2023-12-14T05:46:02;9.20;99.90
8711;DHT22;4392;47.400;8.062;2023-12-14T05:48:29;9.30;99.90
8711;DHT22;4392;47.400;8.062;2023-12-14T05:50:56;9.30;99.90
8711;DHT22;4392;47.400;8.062;2023-12-14T05:53:22;9.30;99.90
8711;DHT22;4392;47.400;8.062;2023-12-14T05:55:48;9.30;99.90
8711;DHT22;4392;47.400;8.062;2023-12-14T05:58:16;9.30;99.90
8711;DHT22;4392;47.400;8.062;2023-12-14T06:00:41;9.30;99.90
8711;DHT22;4392;47.400;8.062;2023-12-14T06:03:07;9.30;99.90
8711;DHT22;4392;47.400;8.062;2023-12-14T06:05:33;9.30;99.90
8711;DHT22;4392;47.400;8.062;2023-12-14T06:07:58;9.30;99.90
8711;DHT22;4392;47.400;8.062;2023-12-14T06:10:24;9.30;99.90
8711;DHT22;4392;47.400;8.062;2023-12-14T06:12:49;9.30;99.90
8711;DHT22;4392;47.400;8.062;2023-12-14T06:15:15;9.20;99.90
8711;DHT22;4392;47.400;8.062;2023-12-14T06:17:41;9.20;99.90
8711;DHT22;4392;47.400;8.062;2023-12-14T06:20:08;9.20;99.90
8711;DHT22;4392;47.400;8.062;2023-12-14T06:22:37;9.20;99.90
8711;DHT22;4392;47.400;8.062;2023-12-14T06:25:03;9.20;99.90
8711;DHT22;4392;47.400;8.062;2023-12-14T06:27:29;9.30;99.90
8711;DHT22;4392;47.400;8.062;2023-12-14T06:29:55;9.30;99.90
8711;DHT22;4392;47.400;8.062;2023-12-14T06:32:20;9.20;99.90
8711;DHT22;4392;47.400;8.062;2023-12-14T06:34:48;9.20;99.90
8711;DHT22;4392;47.400;8.062;2023-12-14T06:37:14;9.30;99.90
8711;DHT22;4392;47.400;8.062;2023-12-14T06:39:43;9.30;99.90
8711;DHT22;4392;47.400;8.062;2023-12-14T06:42:09;8.90;99.90
8711;DHT22;4392;47.400;8.062;2023-12-14T06:44:34;9.10;99.90
8711;DHT22;4392;47.400;8.062;2023-12-14T06:47:00;9.20;99.90
8711;DHT22;4392;47.400;8.062;2023-12-14T06:49:28;9.20;99.90
8711;DHT22;4392;47.400;8.062;2023-12-14T06:51:54;9.20;99.90
8711;DHT22;4392;47.400;8.062;2023-12-14T06:54:19;9.20;99.90
8711;DHT22;4392;47.400;8.062;2023-12-14T06:56:45;9.20;99.90
8711;DHT22;4392;47.400;8.062;2023-12-14T06:59:10;9.30;99.90
8711;DHT22;4392;47.400;8.062;2023-12-14T07:01:36;9.30;99.90
8711;DHT22;4392;47.400;8.062;2023-12-14T07:04:02;9.30;99.90
8711;DHT22;4392;47.400;8.062;2023-12-14T07:06:30;9.30;99.90
8711;DHT22;4392;47.400;8.062;2023-12-14T07:08:56;9.30;99.90
8711;DHT22;4392;47.400;8.062;2023-12-14T07:11:21;9.30;99.90
8711;DHT22;4392;47.400;8.062;2023-12-14T07:13:47;9.30;99.90
8711;DHT22;4392;47.400;8.062;2023-12-14T07:16:13;9.20;99.90
8711;DHT22;4392;47.400;8.062;2023-12-14T07:18:41;9.20;99.90
8711;DHT22;4392;47.400;8.062;2023-12-14T07:21:07;9.20;99.90
8711;DHT22;4392;47.400;8.062;2023-12-14T07:23:34;9.30;99.90
8711;DHT22;4392;47.400;8.062;2023-12-14T07:25:59;9.30;99.90
8711;DHT22;4392;47.400;8.062;2023-12-14T07:28:26;9.30;99.90
8711;DHT22;4392;47.400;8.062;2023-12-14T07:30:51;9.30;99.90
8711;DHT22;4392;47.400;8.062;2023-12-14T07:33:17;9.30;99.90
8711;DHT22;4392;47.400;8.062;2023-12-14T07:35:43;9.30;99.90
8711;DHT22;4392;47.400;8.062;2023-12-14T07:38:12;9.30;99.90
8711;DHT22;4392;47.400;8.062;2023-12-14T07:40:38;9.30;99.90
8711;DHT22;4392;47.400;8.062;2023-12-14T07:43:05;9.30;99.90
8711;DHT22;4392;47.400;8.062;2023-12-14T07:45:30;9.30;99.90
8711;DHT22;4392;47.400;8.062;2023-12-14T07:47:56;9.30;99.90
8711;DHT22;4392;47.400;8.062;2023-12-14T07:50:21;9.30;99.90
8711;DHT22;4392;47.400;8.062;2023-12-14T07:52:47;9.30;99.90
8711;DHT22;4392;47.400;8.062;2023-12-14T07:55:13;9.30;99.90
8711;DHT22;4392;47.400;8.062;2023-12-14T07:57:42;9.30;99.90
8711;DHT22;4392;47.400;8.062;2023-12-14T08:00:09;9.40;99.90
8711;DHT22;4392;47.400;8.062;2023-12-14T08:02:35;9.20;99.90
8711;DHT22;4392;47.400;8.062;2023-12-14T08:05:01;9.10;99.90
8711;DHT22;4392;47.400;8.062;2023-12-14T08:07:26;9.20;99.90
8711;DHT22;4392;47.400;8.062;2023-12-14T08:09:58;9.20;99.90
8711;DHT22;4392;47.400;8.062;2023-12-14T08:12:24;9.20;99.90
8711;DHT22;4392;47.400;8.062;2023-12-14T08:14:50;9.30;99.90
8711;DHT22;4392;47.400;8.062;2023-12-14T08:17:16;9.30;99.90
8711;DHT22;4392;47.400;8.062;2023-12-14T08:19:44;9.30;99.90
8711;DHT22;4392;47.400;8.062;2023-12-14T08:22:10;9.30;99.90
8711;DHT22;4392;47.400;8.062;2023-12-14T08:24:37;9.30;99.90
8711;DHT22;4392;47.400;8.062;2023-12-14T08:27:03;9.30;99.90
8711;DHT22;4392;47.400;8.062;2023-12-14T08:29:28;9.30;99.90
8711;DHT22;4392;47.400;8.062;2023-12-14T08:31:54;9.30;99.90
8711;DHT22;4392;47.400;8.062;2023-12-14T08:34:23;9.30;99.90
8711;DHT22;4392;47.400;8.062;2023-12-14T08:36:49;9.20;99.90
8711;DHT22;4392;47.400;8.062;2023-12-14T08:39:14;9.20;99.90
8711;DHT22;4392;47.400;8.062;2023-12-14T08:41:40;9.20;99.90
8711;DHT22;4392;47.400;8.062;2023-12-14T08:44:07;9.20;99.90
8711;DHT22;4392;47.400;8.062;2023-12-14T08:46:43;9.20;99.90
8711;DHT22;4392;47.400;8.062;2023-12-14T08:49:11;9.30;99.90
8711;DHT22;4392;47.400;8.062;2023-12-14T08:51:36;9.30;99.90
8711;DHT22;4392;47.400;8.062;2023-12-14T08:54:02;9.30;99.90
8711;DHT22;4392;47.400;8.062;2023-12-14T08:56:28;9.30;99.90
8711;DHT22;4392;47.400;8.062;2023-12-14T08:58:53;9.10;99.90
8711;DHT22;4392;47.400;8.062;2023-12-14T09:01:20;9.20;99.90
8711;DHT22;4392;47.400;8.062;2023-12-14T09:03:49;9.10;99.90
8711;DHT22;4392;47.400;8.062;2023-12-14T09:06:16;9.10;99.90
8711;DHT22;4392;47.400;8.062;2023-12-14T09:08:43;9.10;99.90
8711;DHT22;4392;47.400;8.062;2023-12-14T09:11:09;9.20;99.90
8711;DHT22;4392;47.400;8.062;2023-12-14T09:13:34;9.30;99.90
8711;DHT22;4392;47.400;8.062;2023-12-14T09:16:00;9.30;99.90
8711;DHT22;4392;47.400;8.062;2023-12-14T09:18:25;9.30;99.90
8711;DHT22;4392;47.400;8.062;2023-12-14T09:20:51;9.30;99.90
8711;DHT22;4392;47.400;8.062;2023-12-14T09:23:17;9.40;99.90
8711;DHT22;4392;47.400;8.062;2023-12-14T09:25:44;9.30;99.90
8711;DHT22;4392;47.400;8.062;2023-12-14T09:28:10;9.30;99.90
8711;DHT22;4392;47.400;8.062;2023-12-14T09:30:36;9.30;99.90
8711;DHT22;4392;47.400;8.062;2023-12-14T09:33:03;9.30;99.90
8711;DHT22;4392;47.400;8.062;2023-12-14T09:35:29;9.30;99.90
8711;DHT22;4392;47.400;8.062;2023-12-14T09:37:55;9.40;99.90
8711;DHT22;4392;47.400;8.062;2023-12-14T09:40:22;9.40;99.90
8711;DHT22;4392;47.400;8.062;2023-12-14T09:42:48;9.40;99.90
8711;DHT22;4392;47.400;8.062;2023-12-14T09:45:17;9.40;99.90
8711;DHT22;4392;47.400;8.062;2023-12-14T09:47:44;9.40;99.90
8711;DHT22;4392;47.400;8.062;2023-12-14T09:50:12;9.40;99.90
8711;DHT22;4392;47.400;8.062;2023-12-14T09:52:40;9.40;99.90
8711;DHT22;4392;47.400;8.062;2023-12-14T09:55:10;9.50;99.90
8711;DHT22;4392;47.400;8.062;2023-12-14T09:57:36;9.50;99.90
8711;DHT22;4392;47.400;8.062;2023-12-14T10:00:02;9.50;99.90
8711;DHT22;4392;47.400;8.062;2023-12-14T10:02:30;9.60;99.90
8711;DHT22;4392;47.400;8.062;2023-12-14T10:04:55;9.60;99.90
8711;DHT22;4392;47.400;8.062;2023-12-14T10:07:22;9.60;99.90
8711;DHT22;4392;47.400;8.062;2023-12-14T10:09:47;9.60;99.90
8711;DHT22;4392;47.400;8.062;2023-12-14T10:12:13;9.50;99.90
8711;DHT22;4392;47.400;8.062;2023-12-14T10:14:39;9.60;99.90
8711;DHT22;4392;47.400;8.062;2023-12-14T10:17:21;9.50;99.90
8711;DHT22;4392;47.400;8.062;2023-12-14T10:19:48;9.60;99.90
8711;DHT22;4392;47.400;8.062;2023-12-14T10:22:17;9.60;99.90
8711;DHT22;4392;47.400;8.062;2023-12-14T10:24:47;9.60;99.90
8711;DHT22;4392;47.400;8.062;2023-12-14T10:27:14;9.60;99.90
8711;DHT22;4392;47.400;8.062;2023-12-14T10:29:41;9.60;99.90
8711;DHT22;4392;47.400;8.062;2023-12-14T10:32:07;9.70;99.90
8711;DHT22;4392;47.400;8.062;2023-12-14T10:34:35;9.60;99.90
8711;DHT22;4392;47.400;8.062;2023-12-14T10:37:05;9.70;99.90
8711;DHT22;4392;47.400;8.062;2023-12-14T10:39:36;9.60;99.90
8711;DHT22;4392;47.400;8.062;2023-12-14T10:42:03;9.60;99.90
8711;DHT22;4392;47.400;8.062;2023-12-14T10:44:36;9.70;99.90
8711;DHT22;4392;47.400;8.062;2023-12-14T10:47:06;9.70;99.90
8711;DHT22;4392;47.400;8.062;2023-12-14T10:49:34;9.70;99.90
8711;DHT22;4392;47.400;8.062;2023-12-14T10:52:03;9.70;99.90
8711;DHT22;4392;47.400;8.062;2023-12-14T10:54:31;9.70;99.90
8711;DHT22;4392;47.400;8.062;2023-12-14T10:56:57;9.60;99.90
8711;DHT22;4392;47.400;8.062;2023-12-14T10:59:26;9.70;99.90
8711;DHT22;4392;47.400;8.062;2023-12-14T11:01:53;9.70;99.90
8711;DHT22;4392;47.400;8.062;2023-12-14T11:04:22;9.60;99.90
8711;DHT22;4392;47.400;8.062;2023-12-14T11:06:53;9.40;99.90
8711;DHT22;4392;47.400;8.062;2023-12-14T11:09:22;9.50;99.90
8711;DHT22;4392;47.400;8.062;2023-12-14T11:14:23;9.70;99.90
8711;DHT22;4392;47.400;8.062;2023-12-14T11:16:53;9.60;99.90
8711;DHT22;4392;47.400;8.062;2023-12-14T11:21:56;9.50;99.90
8711;DHT22;4392;47.400;8.062;2023-12-14T11:24:25;9.30;99.90
8711;DHT22;4392;47.400;8.062;2023-12-14T11:26:51;9.20;99.90
8711;DHT22;4392;47.400;8.062;2023-12-14T11:29:18;9.50;99.90
8711;DHT22;4392;47.400;8.062;2023-12-14T11:31:45;9.60;99.90
8711;DHT22;4392;47.400;8.062;2023-12-14T11:34:11;9.50;99.90
8711;DHT22;4392;47.400;8.062;2023-12-14T11:36:37;9.60;99.90
8711;DHT22;4392;47.400;8.062;2023-12-14T11:39:07;9.60;99.90
8711;DHT22;4392;47.400;8.062;2023-12-14T11:41:33;9.60;99.90
8711;DHT22;4392;47.400;8.062;2023-12-14T11:43:59;9.60;99.90
8711;DHT22;4392;47.400;8.062;2023-12-14T11:46:25;9.70;99.90
8711;DHT22;4392;47.400;8.062;2023-12-14T11:48:51;9.70;99.90
8711;DHT22;4392;47.400;8.062;2023-12-14T11:51:17;9.60;99.90
8711;DHT22;4392;47.400;8.062;2023-12-14T11:53:46;9.70;99.90
8711;DHT22;4392;47.400;8.062;2023-12-14T11:56:14;9.60;99.90
8711;DHT22;4392;47.400;8.062;2023-12-14T11:58:43;9.60;99.90
8711;DHT22;4392;47.400;8.062;2023-12-14T12:01:18;9.60;99.90
8711;DHT22;4392;47.400;8.062;2023-12-14T12:03:45;9.70;99.90
8711;DHT22;4392;47.400;8.062;2023-12-14T12:06:24;9.70;99.90
8711;DHT22;4392;47.400;8.062;2023-12-14T12:08:51;9.40;99.90
8711;DHT22;4392;47.400;8.062;2023-12-14T12:11:18;9.50;99.90
8711;DHT22;4392;47.400;8.062;2023-12-14T12:13:44;9.60;99.90
8711;DHT22;4392;47.400;8.062;2023-12-14T12:16:09;9.70;99.90
8711;DHT22;4392;47.400;8.062;2023-12-14T12:18:35;9.80;99.90
8711;DHT22;4392;47.400;8.062;2023-12-14T12:21:01;9.80;99.90
8711;DHT22;4392;47.400;8.062;2023-12-14T12:23:30;9.80;99.90
8711;DHT22;4392;47.400;8.062;2023-12-14T12:25:56;9.80;99.90
8711;DHT22;4392;47.400;8.062;2023-12-14T12:28:24;9.80;99.90
8711;DHT22;4392;47.400;8.062;2023-12-14T12:30:50;9.80;99.90
8711;DHT22;4392;47.400;8.062;2023-12-14T12:33:15;9.80;99.90
8711;DHT22;4392;47.400;8.062;2023-12-14T12:35:41;9.30;99.90
8711;DHT22;4392;47.400;8.062;2023-12-14T12:38:06;9.50;99.90
8711;DHT22;4392;47.400;8.062;2023-12-14T12:40:32;9.60;99.90
8711;DHT22;4392;47.400;8.062;2023-12-14T12:42:59;9.70;99.90
8711;DHT22;4392;47.400;8.062;2023-12-14T12:45:24;9.70;99.90
8711;DHT22;4392;47.400;8.062;2023-12-14T12:47:55;9.70;99.90
8711;DHT22;4392;47.400;8.062;2023-12-14T12:50:21;9.80;99.90
8711;DHT22;4392;47.400;8.062;2023-12-14T12:52:47;9.80;99.90
8711;DHT22;4392;47.400;8.062;2023-12-14T12:55:15;9.80;99.90
8711;DHT22;4392;47.400;8.062;2023-12-14T12:57:41;9.90;99.90
8711;DHT22;4392;47.400;8.062;2023-12-14T13:00:11;9.70;99.90
8711;DHT22;4392;47.400;8.062;2023-12-14T13:02:40;9.80;99.90
8711;DHT22;4392;47.400;8.062;2023-12-14T13:05:06;9.70;99.90
8711;DHT22;4392;47.400;8.062;2023-12-14T13:07:34;9.70;99.90
8711;DHT22;4392;47.400;8.062;2023-12-14T13:09:59;9.80;99.90
8711;DHT22;4392;47.400;8.062;2023-12-14T13:12:25;9.80;99.90
8711;DHT22;4392;47.400;8.062;2023-12-14T13:14:51;9.80;99.90
8711;DHT22;4392;47.400;8.062;2023-12-14T13:17:17;9.90;99.90
8711;DHT22;4392;47.400;8.062;2023-12-14T13:19:44;9.80;99.90
8711;DHT22;4392;47.400;8.062;2023-12-14T13:22:10;9.90;99.90
8711;DHT22;4392;47.400;8.062;2023-12-14T13:24:37;9.90;99.90
8711;DHT22;4392;47.400;8.062;2023-12-14T13:27:03;9.70;99.90
8711;DHT22;4392;47.400;8.062;2023-12-14T13:29:29;9.70;99.90
8711;DHT22;4392;47.400;8.062;2023-12-14T13:31:57;9.80;99.90
8711;DHT22;4392;47.400;8.062;2023-12-14T13:34:23;11.20;99.90
8711;DHT22;4392;47.400;8.062;2023-12-14T13:36:48;10.80;99.90
8711;DHT22;4392;47.400;8.062;2023-12-14T13:39:14;10.40;99.90
8711;DHT22;4392;47.400;8.062;2023-12-14T13:41:42;10.20;99.90
8711;DHT22;4392;47.400;8.062;2023-12-14T13:44:07;10.10;99.90
8711;DHT22;4392;47.400;8.062;2023-12-14T13:46:33;10.10;99.90
8711;DHT22;4392;47.400;8.062;2023-12-14T13:48:59;10.00;99.90
8711;DHT22;4392;47.400;8.062;2023-12-14T13:51:25;10.00;99.90
8711;DHT22;4392;47.400;8.062;2023-12-14T13:53:52;9.90;99.90
8711;DHT22;4392;47.400;8.062;2023-12-14T13:56:17;9.90;99.90
8711;DHT22;4392;47.400;8.062;2023-12-14T13:58:43;9.90;99.90
8711;DHT22;4392;47.400;8.062;2023-12-14T14:01:09;9.90;99.90
8711;DHT22;4392;47.400;8.062;2023-12-14T14:03:35;9.80;99.90
8711;DHT22;4392;47.400;8.062;2023-12-14T14:06:03;11.50;99.90
8711;DHT22;4392;47.400;8.062;2023-12-14T14:08:28;12.50;99.90
8711;DHT22;4392;47.400;8.062;2023-12-14T14:10:57;12.10;99.90
8711;DHT22;4392;47.400;8.062;2023-12-14T14:13:23;11.10;99.90
8711;DHT22;4392;47.400;8.062;2023-12-14T14:15:48;10.80;99.90
8711;DHT22;4392;47.400;8.062;2023-12-14T14:18:14;10.50;99.90
8711;DHT22;4392;47.400;8.062;2023-12-14T14:20:39;10.40;99.90
8711;DHT22;4392;47.400;8.062;2023-12-14T14:23:05;10.40;99.90
8711;DHT22;4392;47.400;8.062;2023-12-14T14:25:31;10.30;99.90
8711;DHT22;4392;47.400;8.062;2023-12-14T14:27:56;10.00;99.90
8711;DHT22;4392;47.400;8.062;2023-12-14T14:30:24;10.00;99.90
8711;DHT22;4392;47.400;8.062;2023-12-14T14:32:49;9.90;99.90
8711;DHT22;4392;47.400;8.062;2023-12-14T14:35:15;10.00;99.90
8711;DHT22;4392;47.400;8.062;2023-12-14T14:37:41;10.00;99.90
8711;DHT22;4392;47.400;8.062;2023-12-14T14:40:11;9.90;99.90
8711;DHT22;4392;47.400;8.062;2023-12-14T14:42:36;10.00;99.90
8711;DHT22;4392;47.400;8.062;2023-12-14T14:45:02;11.60;99.90
8711;DHT22;4392;47.400;8.062;2023-12-14T14:47:28;12.50;99.90
8711;DHT22;4392;47.400;8.062;2023-12-14T14:49:54;12.80;99.90
8711;DHT22;4392;47.400;8.062;2023-12-14T14:52:22;13.00;99.90
8711;DHT22;4392;47.400;8.062;2023-12-14T14:54:49;12.90;99.90
8711;DHT22;4392;47.400;8.062;2023-12-14T14:57:14;13.10;99.90
8711;DHT22;4392;47.400;8.062;2023-12-14T14:59:40;12.50;99.90
8711;DHT22;4392;47.400;8.062;2023-12-14T15:02:06;11.30;99.90
8711;DHT22;4392;47.400;8.062;2023-12-14T15:04:34;10.50;99.90
8711;DHT22;4392;47.400;8.062;2023-12-14T15:07:00;10.60;99.90
8711;DHT22;4392;47.400;8.062;2023-12-14T15:09:28;10.50;99.90
8711;DHT22;4392;47.400;8.062;2023-12-14T15:11:53;10.30;99.90
8711;DHT22;4392;47.400;8.062;2023-12-14T15:14:19;11.80;99.90
8711;DHT22;4392;47.400;8.062;2023-12-14T15:16:47;12.60;99.90
8711;DHT22;4392;47.400;8.062;2023-12-14T15:19:13;13.00;99.90
8711;DHT22;4392;47.400;8.062;2023-12-14T15:21:39;13.20;99.90
8711;DHT22;4392;47.400;8.062;2023-12-14T15:24:05;13.00;99.90
8711;DHT22;4392;47.400;8.062;2023-12-14T15:26:31;12.20;99.90
8711;DHT22;4392;47.400;8.062;2023-12-14T15:28:58;11.30;99.90
8711;DHT22;4392;47.400;8.062;2023-12-14T15:31:24;11.00;99.90
8711;DHT22;4392;47.400;8.062;2023-12-14T15:33:50;10.80;99.90
8711;DHT22;4392;47.400;8.062;2023-12-14T15:36:15;10.60;99.90
8711;DHT22;4392;47.400;8.062;2023-12-14T15:38:41;10.40;99.90
8711;DHT22;4392;47.400;8.062;2023-12-14T15:41:12;10.40;99.90
8711;DHT22;4392;47.400;8.062;2023-12-14T15:43:38;10.40;99.90
8711;DHT22;4392;47.400;8.062;2023-12-14T15:46:03;10.30;99.90
8711;DHT22;4392;47.400;8.062;2023-12-14T15:48:29;10.30;99.90
8711;DHT22;4392;47.400;8.062;2023-12-14T15:50:55;10.30;99.90
8711;DHT22;4392;47.400;8.062;2023-12-14T15:53:20;10.30;99.90
8711;DHT22;4392;47.400;8.062;2023-12-14T15:55:46;10.20;99.90
8711;DHT22;4392;47.400;8.062;2023-12-14T15:58:12;10.20;99.90
8711;DHT22;4392;47.400;8.062;2023-12-14T16:00:38;10.10;99.90
8711;DHT22;4392;47.400;8.062;2023-12-14T16:03:04;10.10;99.90
8711;DHT22;4392;47.400;8.062;2023-12-14T16:05:30;10.10;99.90
8711;DHT22;4392;47.400;8.062;2023-12-14T16:07:55;10.10;99.90
8711;DHT22;4392;47.400;8.062;2023-12-14T16:10:21;10.00;99.90